sensor_id;sensor_type;location;lat;lon;timestamp;P1;durP1;ratioP1;P2;durP2;ratioP2
69188;SDS011;56302;52.322;5.926;2022-10-26T00:00:04;6.35;;;2.88;;
69188;SDS011;56302;52.322;5.926;2022-10-26T00:02:30;4.87;;;2.60;;
69188;SDS011;56302;52.322;5.926;2022-10-26T00:04:56;4.82;;;3.05;;
69188;SDS011;56302;52.322;5.926;2022-10-26T00:07:22;7.70;;;3.08;;
69188;SDS011;56302;52.322;5.926;2022-10-26T00:09:48;6.47;;;3.20;;
69188;SDS011;56302;52.322;5.926;2022-10-26T00:12:13;6.20;;;3.10;;
69188;SDS011;56302;52.322;5.926;2022-10-26T00:14:39;7.10;;;3.22;;
69188;SDS011;56302;52.322;5.926;2022-10-26T00:17:04;6.27;;;3.20;;
69188;SDS011;56302;52.322;5.926;2022-10-26T00:19:31;8.30;;;3.17;;
69188;SDS011;56302;52.322;5.926;2022-10-26T00:21:58;7.82;;;3.30;;
69188;SDS011;56302;52.322;5.926;2022-10-26T00:24:23;11.87;;;3.43;;
69188;SDS011;56302;52.322;5.926;2022-10-26T00:26:48;25.77;;;5.35;;
69188;SDS011;56302;52.322;5.926;2022-10-26T00:29:14;27.97;;;6.27;;
69188;SDS011;56302;52.322;5.926;2022-10-26T00:31:40;15.45;;;4.95;;
69188;SDS011;56302;52.322;5.926;2022-10-26T00:34:06;13.87;;;4.60;;
69188;SDS011;56302;52.322;5.926;2022-10-26T00:36:33;41.95;;;6.10;;
69188;SDS011;56302;52.322;5.926;2022-10-26T00:38:59;12.60;;;5.07;;
69188;SDS011;56302;52.322;5.926;2022-10-26T00:41:26;12.40;;;6.40;;
69188;SDS011;56302;52.322;5.926;2022-10-26T00:43:54;12.10;;;5.72;;
69188;SDS011;56302;52.322;5.926;2022-10-26T00:48:57;17.20;;;4.72;;
69188;SDS011;56302;52.322;5.926;2022-10-26T00:51:36;9.18;;;4.82;;
69188;SDS011;56302;52.322;5.926;2022-10-26T00:54:07;13.47;;;4.10;;
69188;SDS011;56302;52.322;5.926;2022-10-26T00:56:37;16.45;;;5.00;;
69188;SDS011;56302;52.322;5.926;2022-10-26T00:59:05;9.98;;;4.97;;
69188;SDS011;56302;52.322;5.926;2022-10-26T01:01:33;18.17;;;5.00;;
69188;SDS011;56302;52.322;5.926;2022-10-26T01:04:01;12.95;;;4.70;;
69188;SDS011;56302;52.322;5.926;2022-10-26T01:06:27;12.07;;;4.70;;
69188;SDS011;56302;52.322;5.926;2022-10-26T01:08:55;12.07;;;5.20;;
69188;SDS011;56302;52.322;5.926;2022-10-26T01:11:21;13.70;;;4.80;;
69188;SDS011;56302;52.322;5.926;2022-10-26T01:13:47;16.05;;;6.07;;
69188;SDS011;56302;52.322;5.926;2022-10-26T01:21:50;11.93;;;5.72;;
69188;SDS011;56302;52.322;5.926;2022-10-26T01:27:30;11.27;;;5.22;;
69188;SDS011;56302;52.322;5.926;2022-10-26T01:38:41;17.85;;;7.63;;
69188;SDS011;56302;52.322;5.926;2022-10-26T01:41:29;16.65;;;7.68;;
69188;SDS011;56302;52.322;5.926;2022-10-26T01:44:08;18.10;;;7.03;;
69188;SDS011;56302;52.322;5.926;2022-10-26T01:46:40;17.37;;;6.77;;
69188;SDS011;56302;52.322;5.926;2022-10-26T01:49:09;18.02;;;6.78;;
69188;SDS011;56302;52.322;5.926;2022-10-26T01:51:38;15.18;;;6.05;;
69188;SDS011;56302;52.322;5.926;2022-10-26T01:54:05;11.77;;;5.82;;
69188;SDS011;56302;52.322;5.926;2022-10-26T01:56:33;12.43;;;5.87;;
69188;SDS011;56302;52.322;5.926;2022-10-26T02:18:51;15.73;;;7.20;;
69188;SDS011;56302;52.322;5.926;2022-10-26T02:21:20;16.23;;;7.13;;
69188;SDS011;56302;52.322;5.926;2022-10-26T02:23:50;18.42;;;8.38;;
69188;SDS011;56302;52.322;5.926;2022-10-26T02:26:20;25.30;;;9.18;;
69188;SDS011;56302;52.322;5.926;2022-10-26T02:28:49;17.60;;;8.80;;
69188;SDS011;56302;52.322;5.926;2022-10-26T02:31:18;18.80;;;9.02;;
69188;SDS011;56302;52.322;5.926;2022-10-26T02:33:45;13.90;;;7.40;;
69188;SDS011;56302;52.322;5.926;2022-10-26T02:36:15;12.43;;;7.40;;
69188;SDS011;56302;52.322;5.926;2022-10-26T02:38:46;12.05;;;7.05;;
69188;SDS011;56302;52.322;5.926;2022-10-26T02:41:13;13.18;;;6.63;;
69188;SDS011;56302;52.322;5.926;2022-10-26T02:43:42;12.70;;;7.60;;
69188;SDS011;56302;52.322;5.926;2022-10-26T02:46:13;13.67;;;7.03;;
69188;SDS011;56302;52.322;5.926;2022-10-26T02:48:41;12.48;;;6.80;;
69188;SDS011;56302;52.322;5.926;2022-10-26T02:51:11;13.38;;;7.35;;
69188;SDS011;56302;52.322;5.926;2022-10-26T02:56:27;12.32;;;7.07;;
69188;SDS011;56302;52.322;5.926;2022-10-26T02:58:58;13.48;;;7.40;;
69188;SDS011;56302;52.322;5.926;2022-10-26T03:01:27;16.77;;;7.53;;
69188;SDS011;56302;52.322;5.926;2022-10-26T03:03:57;12.05;;;6.68;;
69188;SDS011;56302;52.322;5.926;2022-10-26T03:06:23;16.70;;;7.13;;
69188;SDS011;56302;52.322;5.926;2022-10-26T03:08:50;16.98;;;8.00;;
69188;SDS011;56302;52.322;5.926;2022-10-26T03:11:16;13.63;;;7.28;;
69188;SDS011;56302;52.322;5.926;2022-10-26T03:13:41;15.18;;;8.02;;
69188;SDS011;56302;52.322;5.926;2022-10-26T03:16:07;13.63;;;8.32;;
69188;SDS011;56302;52.322;5.926;2022-10-26T03:18:33;14.87;;;8.20;;
69188;SDS011;56302;52.322;5.926;2022-10-26T03:20:58;18.50;;;9.23;;
69188;SDS011;56302;52.322;5.926;2022-10-26T03:23:24;20.67;;;10.20;;
69188;SDS011;56302;52.322;5.926;2022-10-26T03:25:49;18.90;;;10.70;;
69188;SDS011;56302;52.322;5.926;2022-10-26T03:28:15;20.00;;;9.50;;
69188;SDS011;56302;52.322;5.926;2022-10-26T03:30:40;18.27;;;10.00;;
69188;SDS011;56302;52.322;5.926;2022-10-26T03:33:06;23.42;;;11.07;;
69188;SDS011;56302;52.322;5.926;2022-10-26T03:35:32;21.10;;;10.55;;
69188;SDS011;56302;52.322;5.926;2022-10-26T03:37:57;27.43;;;9.40;;
69188;SDS011;56302;52.322;5.926;2022-10-26T03:40:23;25.05;;;11.35;;
69188;SDS011;56302;52.322;5.926;2022-10-26T03:42:48;24.93;;;10.63;;
69188;SDS011;56302;52.322;5.926;2022-10-26T03:45:14;20.17;;;9.70;;
69188;SDS011;56302;52.322;5.926;2022-10-26T03:47:46;20.45;;;10.57;;
69188;SDS011;56302;52.322;5.926;2022-10-26T03:50:13;20.53;;;8.47;;
69188;SDS011;56302;52.322;5.926;2022-10-26T03:52:41;18.52;;;9.88;;
69188;SDS011;56302;52.322;5.926;2022-10-26T03:55:06;24.77;;;10.30;;
69188;SDS011;56302;52.322;5.926;2022-10-26T03:57:32;19.77;;;10.02;;
69188;SDS011;56302;52.322;5.926;2022-10-26T03:59:58;19.35;;;10.57;;
69188;SDS011;56302;52.322;5.926;2022-10-26T04:02:24;19.67;;;9.77;;
69188;SDS011;56302;52.322;5.926;2022-10-26T04:04:49;24.03;;;11.47;;
69188;SDS011;56302;52.322;5.926;2022-10-26T04:07:15;21.35;;;9.80;;
69188;SDS011;56302;52.322;5.926;2022-10-26T04:09:40;20.77;;;9.37;;
69188;SDS011;56302;52.322;5.926;2022-10-26T04:12:06;27.67;;;10.48;;
69188;SDS011;56302;52.322;5.926;2022-10-26T04:14:31;21.90;;;10.50;;
69188;SDS011;56302;52.322;5.926;2022-10-26T04:16:57;21.10;;;9.83;;
69188;SDS011;56302;52.322;5.926;2022-10-26T04:19:22;19.53;;;9.97;;
69188;SDS011;56302;52.322;5.926;2022-10-26T04:21:49;19.35;;;10.25;;
69188;SDS011;56302;52.322;5.926;2022-10-26T04:24:15;20.85;;;10.57;;
69188;SDS011;56302;52.322;5.926;2022-10-26T04:26:41;23.53;;;10.13;;
69188;SDS011;56302;52.322;5.926;2022-10-26T04:29:06;20.63;;;10.50;;
69188;SDS011;56302;52.322;5.926;2022-10-26T04:31:33;21.02;;;10.48;;
69188;SDS011;56302;52.322;5.926;2022-10-26T04:33:58;23.63;;;9.70;;
69188;SDS011;56302;52.322;5.926;2022-10-26T04:36:24;24.10;;;10.57;;
69188;SDS011;56302;52.322;5.926;2022-10-26T04:38:49;19.47;;;10.87;;
69188;SDS011;56302;52.322;5.926;2022-10-26T04:41:15;20.77;;;10.13;;
69188;SDS011;56302;52.322;5.926;2022-10-26T04:43:40;23.88;;;10.38;;
69188;SDS011;56302;52.322;5.926;2022-10-26T04:46:06;24.60;;;10.80;;
69188;SDS011;56302;52.322;5.926;2022-10-26T04:48:32;23.47;;;9.90;;
69188;SDS011;56302;52.322;5.926;2022-10-26T04:51:00;18.02;;;9.65;;
69188;SDS011;56302;52.322;5.926;2022-10-26T04:53:26;19.17;;;9.85;;
69188;SDS011;56302;52.322;5.926;2022-10-26T04:55:56;23.40;;;11.75;;
69188;SDS011;56302;52.322;5.926;2022-10-26T04:58:22;18.92;;;9.52;;
69188;SDS011;56302;52.322;5.926;2022-10-26T05:00:47;23.80;;;9.90;;
69188;SDS011;56302;52.322;5.926;2022-10-26T05:03:13;27.83;;;10.00;;
69188;SDS011;56302;52.322;5.926;2022-10-26T05:05:38;27.50;;;10.43;;
69188;SDS011;56302;52.322;5.926;2022-10-26T05:08:04;22.03;;;10.03;;
69188;SDS011;56302;52.322;5.926;2022-10-26T05:10:30;20.70;;;10.15;;
69188;SDS011;56302;52.322;5.926;2022-10-26T05:12:57;20.92;;;10.27;;
69188;SDS011;56302;52.322;5.926;2022-10-26T05:15:24;23.63;;;10.20;;
69188;SDS011;56302;52.322;5.926;2022-10-26T05:17:53;20.15;;;9.52;;
69188;SDS011;56302;52.322;5.926;2022-10-26T05:20:21;18.48;;;9.68;;
69188;SDS011;56302;52.322;5.926;2022-10-26T05:22:52;29.05;;;9.82;;
69188;SDS011;56302;52.322;5.926;2022-10-26T05:25:18;22.17;;;9.43;;
69188;SDS011;56302;52.322;5.926;2022-10-26T05:27:44;22.50;;;9.60;;
69188;SDS011;56302;52.322;5.926;2022-10-26T05:30:09;23.30;;;9.13;;
69188;SDS011;56302;52.322;5.926;2022-10-26T05:32:35;23.23;;;9.10;;
69188;SDS011;56302;52.322;5.926;2022-10-26T05:35:01;18.45;;;8.50;;
69188;SDS011;56302;52.322;5.926;2022-10-26T05:37:29;16.30;;;9.23;;
69188;SDS011;56302;52.322;5.926;2022-10-26T05:39:55;20.13;;;9.60;;
69188;SDS011;56302;52.322;5.926;2022-10-26T05:42:20;22.27;;;8.53;;
69188;SDS011;56302;52.322;5.926;2022-10-26T05:44:46;15.33;;;8.17;;
69188;SDS011;56302;52.322;5.926;2022-10-26T05:47:11;17.20;;;8.70;;
69188;SDS011;56302;52.322;5.926;2022-10-26T05:49:37;23.30;;;8.40;;
69188;SDS011;56302;52.322;5.926;2022-10-26T05:52:02;23.95;;;8.40;;
69188;SDS011;56302;52.322;5.926;2022-10-26T05:54:28;15.60;;;8.03;;
69188;SDS011;56302;52.322;5.926;2022-10-26T05:56:54;19.57;;;8.13;;
69188;SDS011;56302;52.322;5.926;2022-10-26T05:59:19;20.38;;;8.15;;
69188;SDS011;56302;52.322;5.926;2022-10-26T06:01:58;28.75;;;7.90;;
69188;SDS011;56302;52.322;5.926;2022-10-26T06:07:02;23.37;;;7.70;;
69188;SDS011;56302;52.322;5.926;2022-10-26T06:09:34;26.10;;;7.30;;
69188;SDS011;56302;52.322;5.926;2022-10-26T06:12:00;17.95;;;7.72;;
69188;SDS011;56302;52.322;5.926;2022-10-26T06:14:26;17.42;;;7.30;;
69188;SDS011;56302;52.322;5.926;2022-10-26T06:19:38;27.55;;;7.57;;
69188;SDS011;56302;52.322;5.926;2022-10-26T06:27:45;21.73;;;8.05;;
69188;SDS011;56302;52.322;5.926;2022-10-26T06:30:17;15.57;;;7.47;;
69188;SDS011;56302;52.322;5.926;2022-10-26T06:32:44;15.43;;;7.97;;
69188;SDS011;56302;52.322;5.926;2022-10-26T06:35:18;16.67;;;7.05;;
69188;SDS011;56302;52.322;5.926;2022-10-26T06:37:54;24.00;;;8.57;;
69188;SDS011;56302;52.322;5.926;2022-10-26T06:40:20;19.70;;;6.65;;
69188;SDS011;56302;52.322;5.926;2022-10-26T06:42:47;19.90;;;7.88;;
69188;SDS011;56302;52.322;5.926;2022-10-26T06:45:13;15.30;;;7.10;;
69188;SDS011;56302;52.322;5.926;2022-10-26T06:47:55;16.90;;;7.90;;
69188;SDS011;56302;52.322;5.926;2022-10-26T06:50:28;20.85;;;7.70;;
69188;SDS011;56302;52.322;5.926;2022-10-26T06:55:50;26.38;;;8.27;;
69188;SDS011;56302;52.322;5.926;2022-10-26T06:58:17;16.77;;;7.30;;
69188;SDS011;56302;52.322;5.926;2022-10-26T07:00:48;16.58;;;7.90;;
69188;SDS011;56302;52.322;5.926;2022-10-26T07:03:15;18.98;;;7.45;;
69188;SDS011;56302;52.322;5.926;2022-10-26T07:05:41;17.55;;;7.95;;
69188;SDS011;56302;52.322;5.926;2022-10-26T07:08:08;21.33;;;8.95;;
69188;SDS011;56302;52.322;5.926;2022-10-26T07:10:33;13.68;;;7.07;;
69188;SDS011;56302;52.322;5.926;2022-10-26T07:13:02;17.75;;;8.60;;
69188;SDS011;56302;52.322;5.926;2022-10-26T07:15:31;18.20;;;7.73;;
69188;SDS011;56302;52.322;5.926;2022-10-26T07:18:02;23.08;;;9.25;;
69188;SDS011;56302;52.322;5.926;2022-10-26T07:20:30;18.95;;;9.32;;
69188;SDS011;56302;52.322;5.926;2022-10-26T07:22:59;17.33;;;8.00;;
69188;SDS011;56302;52.322;5.926;2022-10-26T07:25:24;20.40;;;8.73;;
69188;SDS011;56302;52.322;5.926;2022-10-26T07:27:50;23.75;;;8.48;;
69188;SDS011;56302;52.322;5.926;2022-10-26T07:30:16;19.13;;;7.43;;
69188;SDS011;56302;52.322;5.926;2022-10-26T07:32:42;17.75;;;7.82;;
69188;SDS011;56302;52.322;5.926;2022-10-26T07:35:07;17.07;;;8.57;;
69188;SDS011;56302;52.322;5.926;2022-10-26T07:37:33;16.00;;;7.75;;
69188;SDS011;56302;52.322;5.926;2022-10-26T07:39:59;26.73;;;7.90;;
69188;SDS011;56302;52.322;5.926;2022-10-26T07:42:24;17.53;;;7.73;;
69188;SDS011;56302;52.322;5.926;2022-10-26T07:44:50;18.67;;;8.85;;
69188;SDS011;56302;52.322;5.926;2022-10-26T07:47:15;18.80;;;8.70;;
69188;SDS011;56302;52.322;5.926;2022-10-26T07:49:41;18.20;;;7.53;;
69188;SDS011;56302;52.322;5.926;2022-10-26T07:52:06;18.47;;;8.20;;
69188;SDS011;56302;52.322;5.926;2022-10-26T07:54:33;20.88;;;8.25;;
69188;SDS011;56302;52.322;5.926;2022-10-26T07:56:58;19.52;;;8.02;;
69188;SDS011;56302;52.322;5.926;2022-10-26T07:59:24;16.77;;;6.77;;
69188;SDS011;56302;52.322;5.926;2022-10-26T08:01:50;17.25;;;7.57;;
69188;SDS011;56302;52.322;5.926;2022-10-26T08:04:16;18.60;;;8.70;;
69188;SDS011;56302;52.322;5.926;2022-10-26T08:06:42;22.92;;;8.32;;
69188;SDS011;56302;52.322;5.926;2022-10-26T08:09:07;18.60;;;8.33;;
69188;SDS011;56302;52.322;5.926;2022-10-26T08:11:33;18.53;;;7.90;;
69188;SDS011;56302;52.322;5.926;2022-10-26T08:14:01;18.85;;;8.25;;
69188;SDS011;56302;52.322;5.926;2022-10-26T08:16:27;25.00;;;9.18;;
69188;SDS011;56302;52.322;5.926;2022-10-26T08:18:53;15.35;;;7.97;;
69188;SDS011;56302;52.322;5.926;2022-10-26T08:21:18;21.90;;;8.37;;
69188;SDS011;56302;52.322;5.926;2022-10-26T08:23:45;19.73;;;8.38;;
69188;SDS011;56302;52.322;5.926;2022-10-26T08:26:11;17.83;;;8.90;;
69188;SDS011;56302;52.322;5.926;2022-10-26T08:28:36;19.70;;;7.57;;
69188;SDS011;56302;52.322;5.926;2022-10-26T08:31:02;17.60;;;8.10;;
69188;SDS011;56302;52.322;5.926;2022-10-26T08:33:28;16.50;;;7.90;;
69188;SDS011;56302;52.322;5.926;2022-10-26T08:35:58;18.50;;;8.23;;
69188;SDS011;56302;52.322;5.926;2022-10-26T08:38:25;19.08;;;8.00;;
69188;SDS011;56302;52.322;5.926;2022-10-26T08:40:51;17.30;;;8.18;;
69188;SDS011;56302;52.322;5.926;2022-10-26T08:43:27;17.05;;;7.28;;
69188;SDS011;56302;52.322;5.926;2022-10-26T08:48:34;22.77;;;6.73;;
69188;SDS011;56302;52.322;5.926;2022-10-26T08:51:09;15.75;;;6.22;;
69188;SDS011;56302;52.322;5.926;2022-10-26T08:54:00;15.88;;;7.30;;
69188;SDS011;56302;52.322;5.926;2022-10-26T08:56:39;21.27;;;6.75;;
69188;SDS011;56302;52.322;5.926;2022-10-26T08:59:16;14.35;;;6.75;;
69188;SDS011;56302;52.322;5.926;2022-10-26T09:02:02;16.73;;;6.17;;
69188;SDS011;56302;52.322;5.926;2022-10-26T09:04:28;11.77;;;6.00;;
69188;SDS011;56302;52.322;5.926;2022-10-26T09:15:09;11.70;;;5.07;;
69188;SDS011;56302;52.322;5.926;2022-10-26T09:25:56;10.52;;;4.93;;
69188;SDS011;56302;52.322;5.926;2022-10-26T09:28:24;21.52;;;5.20;;
69188;SDS011;56302;52.322;5.926;2022-10-26T09:30:52;18.70;;;4.28;;
69188;SDS011;56302;52.322;5.926;2022-10-26T09:33:21;26.13;;;4.82;;
69188;SDS011;56302;52.322;5.926;2022-10-26T09:35:49;15.50;;;3.78;;
69188;SDS011;56302;52.322;5.926;2022-10-26T09:38:32;10.70;;;3.38;;
69188;SDS011;56302;52.322;5.926;2022-10-26T09:41:05;11.35;;;2.72;;
69188;SDS011;56302;52.322;5.926;2022-10-26T09:44:07;13.85;;;3.00;;
69188;SDS011;56302;52.322;5.926;2022-10-26T09:49:52;7.20;;;2.03;;
69188;SDS011;56302;52.322;5.926;2022-10-26T09:52:18;9.57;;;1.52;;
69188;SDS011;56302;52.322;5.926;2022-10-26T09:54:44;11.38;;;1.70;;
69188;SDS011;56302;52.322;5.926;2022-10-26T09:57:11;10.53;;;1.73;;
69188;SDS011;56302;52.322;5.926;2022-10-26T09:59:39;9.00;;;1.65;;
69188;SDS011;56302;52.322;5.926;2022-10-26T10:04:58;14.48;;;1.92;;
69188;SDS011;56302;52.322;5.926;2022-10-26T10:07:23;9.60;;;1.90;;
69188;SDS011;56302;52.322;5.926;2022-10-26T10:10:05;8.63;;;1.85;;
69188;SDS011;56302;52.322;5.926;2022-10-26T10:12:40;9.57;;;1.70;;
69188;SDS011;56302;52.322;5.926;2022-10-26T10:15:12;5.47;;;1.80;;
69188;SDS011;56302;52.322;5.926;2022-10-26T10:17:45;10.40;;;1.85;;
69188;SDS011;56302;52.322;5.926;2022-10-26T10:20:19;14.40;;;1.95;;
69188;SDS011;56302;52.322;5.926;2022-10-26T10:23:01;10.90;;;2.20;;
69188;SDS011;56302;52.322;5.926;2022-10-26T10:27:59;4.80;;;1.67;;
69188;SDS011;56302;52.322;5.926;2022-10-26T10:30:29;7.68;;;1.60;;
69188;SDS011;56302;52.322;5.926;2022-10-26T10:33:03;6.32;;;2.30;;
69188;SDS011;56302;52.322;5.926;2022-10-26T10:35:31;7.63;;;1.30;;
69188;SDS011;56302;52.322;5.926;2022-10-26T10:37:57;11.43;;;1.70;;
69188;SDS011;56302;52.322;5.926;2022-10-26T10:40:23;15.33;;;1.77;;
69188;SDS011;56302;52.322;5.926;2022-10-26T10:43:02;8.38;;;1.95;;
69188;SDS011;56302;52.322;5.926;2022-10-26T10:45:30;14.07;;;2.30;;
69188;SDS011;56302;52.322;5.926;2022-10-26T10:47:57;12.82;;;2.47;;
69188;SDS011;56302;52.322;5.926;2022-10-26T10:50:26;8.73;;;2.23;;
69188;SDS011;56302;52.322;5.926;2022-10-26T10:53:10;9.18;;;2.40;;
69188;SDS011;56302;52.322;5.926;2022-10-26T10:55:38;4.60;;;2.33;;
69188;SDS011;56302;52.322;5.926;2022-10-26T10:58:20;8.65;;;2.70;;
69188;SDS011;56302;52.322;5.926;2022-10-26T11:00:54;7.85;;;3.10;;
69188;SDS011;56302;52.322;5.926;2022-10-26T11:06:20;15.25;;;2.20;;
69188;SDS011;56302;52.322;5.926;2022-10-26T11:08:49;13.73;;;2.30;;
69188;SDS011;56302;52.322;5.926;2022-10-26T11:11:18;9.27;;;2.03;;
69188;SDS011;56302;52.322;5.926;2022-10-26T11:13:59;6.20;;;2.03;;
69188;SDS011;56302;52.322;5.926;2022-10-26T11:16:39;13.73;;;2.53;;
69188;SDS011;56302;52.322;5.926;2022-10-26T11:19:19;10.93;;;2.20;;
69188;SDS011;56302;52.322;5.926;2022-10-26T11:21:54;24.20;;;2.80;;
69188;SDS011;56302;52.322;5.926;2022-10-26T11:24:25;10.75;;;2.10;;
69188;SDS011;56302;52.322;5.926;2022-10-26T11:27:16;13.35;;;2.95;;
69188;SDS011;56302;52.322;5.926;2022-10-26T11:32:42;9.32;;;2.22;;
69188;SDS011;56302;52.322;5.926;2022-10-26T11:35:17;10.70;;;2.80;;
69188;SDS011;56302;52.322;5.926;2022-10-26T11:40:44;11.95;;;2.88;;
69188;SDS011;56302;52.322;5.926;2022-10-26T11:43:22;11.97;;;2.70;;
69188;SDS011;56302;52.322;5.926;2022-10-26T11:46:34;13.13;;;2.55;;
69188;SDS011;56302;52.322;5.926;2022-10-26T11:54:48;8.48;;;3.30;;
69188;SDS011;56302;52.322;5.926;2022-10-26T11:57:20;9.33;;;2.80;;
69188;SDS011;56302;52.322;5.926;2022-10-26T11:59:48;7.72;;;3.05;;
69188;SDS011;56302;52.322;5.926;2022-10-26T12:02:20;10.60;;;3.30;;
69188;SDS011;56302;52.322;5.926;2022-10-26T12:07:43;13.57;;;3.63;;
69188;SDS011;56302;52.322;5.926;2022-10-26T12:10:21;36.63;;;3.40;;
69188;SDS011;56302;52.322;5.926;2022-10-26T12:12:54;11.98;;;3.65;;
69188;SDS011;56302;52.322;5.926;2022-10-26T12:15:41;14.85;;;3.30;;
69188;SDS011;56302;52.322;5.926;2022-10-26T12:18:14;12.30;;;2.88;;
69188;SDS011;56302;52.322;5.926;2022-10-26T12:21:05;9.00;;;2.85;;
69188;SDS011;56302;52.322;5.926;2022-10-26T12:23:36;12.20;;;2.73;;
69188;SDS011;56302;52.322;5.926;2022-10-26T12:28:48;9.48;;;3.20;;
69188;SDS011;56302;52.322;5.926;2022-10-26T12:34:03;11.70;;;3.30;;
69188;SDS011;56302;52.322;5.926;2022-10-26T12:36:48;9.43;;;2.80;;
69188;SDS011;56302;52.322;5.926;2022-10-26T12:41:55;13.00;;;3.95;;
69188;SDS011;56302;52.322;5.926;2022-10-26T12:44:31;7.65;;;2.97;;
69188;SDS011;56302;52.322;5.926;2022-10-26T12:46:59;7.47;;;3.45;;
69188;SDS011;56302;52.322;5.926;2022-10-26T12:52:28;9.75;;;3.20;;
69188;SDS011;56302;52.322;5.926;2022-10-26T12:55:12;13.35;;;4.25;;
69188;SDS011;56302;52.322;5.926;2022-10-26T12:57:44;8.63;;;4.00;;
69188;SDS011;56302;52.322;5.926;2022-10-26T13:00:31;16.55;;;3.75;;
69188;SDS011;56302;52.322;5.926;2022-10-26T13:08:52;14.40;;;3.67;;
69188;SDS011;56302;52.322;5.926;2022-10-26T13:11:27;10.73;;;3.90;;
69188;SDS011;56302;52.322;5.926;2022-10-26T13:13:56;9.30;;;3.67;;
69188;SDS011;56302;52.322;5.926;2022-10-26T13:16:25;9.45;;;3.83;;
69188;SDS011;56302;52.322;5.926;2022-10-26T13:18:52;17.45;;;4.25;;
69188;SDS011;56302;52.322;5.926;2022-10-26T13:21:18;7.22;;;3.80;;
69188;SDS011;56302;52.322;5.926;2022-10-26T13:23:46;11.40;;;3.73;;
69188;SDS011;56302;52.322;5.926;2022-10-26T13:26:29;9.90;;;3.00;;
69188;SDS011;56302;52.322;5.926;2022-10-26T13:28:56;10.05;;;3.88;;
69188;SDS011;56302;52.322;5.926;2022-10-26T13:34:02;19.23;;;3.55;;
69188;SDS011;56302;52.322;5.926;2022-10-26T13:39:16;13.60;;;2.95;;
69188;SDS011;56302;52.322;5.926;2022-10-26T13:41:45;9.07;;;3.53;;
69188;SDS011;56302;52.322;5.926;2022-10-26T13:44:16;8.65;;;2.72;;
69188;SDS011;56302;52.322;5.926;2022-10-26T13:46:54;10.35;;;2.97;;
69188;SDS011;56302;52.322;5.926;2022-10-26T13:49:29;13.10;;;3.47;;
69188;SDS011;56302;52.322;5.926;2022-10-26T13:52:02;11.32;;;2.60;;
69188;SDS011;56302;52.322;5.926;2022-10-26T13:54:33;8.10;;;2.92;;
69188;SDS011;56302;52.322;5.926;2022-10-26T13:59:42;8.52;;;3.00;;
69188;SDS011;56302;52.322;5.926;2022-10-26T14:04:52;7.43;;;2.58;;
69188;SDS011;56302;52.322;5.926;2022-10-26T14:07:35;11.90;;;2.70;;
69188;SDS011;56302;52.322;5.926;2022-10-26T14:10:19;5.68;;;2.25;;
69188;SDS011;56302;52.322;5.926;2022-10-26T14:12:50;13.90;;;2.60;;
69188;SDS011;56302;52.322;5.926;2022-10-26T14:15:16;9.23;;;2.30;;
69188;SDS011;56302;52.322;5.926;2022-10-26T14:17:50;5.78;;;2.63;;
69188;SDS011;56302;52.322;5.926;2022-10-26T14:20:18;17.80;;;2.70;;
69188;SDS011;56302;52.322;5.926;2022-10-26T14:22:46;9.55;;;3.15;;
69188;SDS011;56302;52.322;5.926;2022-10-26T14:25:19;16.50;;;2.57;;
69188;SDS011;56302;52.322;5.926;2022-10-26T14:27:50;7.43;;;2.42;;
69188;SDS011;56302;52.322;5.926;2022-10-26T14:30:19;10.23;;;2.40;;
69188;SDS011;56302;52.322;5.926;2022-10-26T14:32:51;6.50;;;2.25;;
69188;SDS011;56302;52.322;5.926;2022-10-26T14:35:17;9.37;;;2.47;;
69188;SDS011;56302;52.322;5.926;2022-10-26T14:37:56;14.25;;;2.03;;
69188;SDS011;56302;52.322;5.926;2022-10-26T14:40:24;12.10;;;2.17;;
69188;SDS011;56302;52.322;5.926;2022-10-26T14:42:55;5.85;;;2.03;;
69188;SDS011;56302;52.322;5.926;2022-10-26T14:45:24;10.43;;;2.17;;
69188;SDS011;56302;52.322;5.926;2022-10-26T14:47:57;9.15;;;2.33;;
69188;SDS011;56302;52.322;5.926;2022-10-26T14:50:24;19.13;;;3.10;;
69188;SDS011;56302;52.322;5.926;2022-10-26T14:53:02;9.25;;;2.33;;
69188;SDS011;56302;52.322;5.926;2022-10-26T14:55:50;12.95;;;2.85;;
69188;SDS011;56302;52.322;5.926;2022-10-26T14:58:21;10.90;;;2.70;;
69188;SDS011;56302;52.322;5.926;2022-10-26T15:03:52;10.82;;;2.90;;
69188;SDS011;56302;52.322;5.926;2022-10-26T15:08:56;9.65;;;2.95;;
69188;SDS011;56302;52.322;5.926;2022-10-26T15:11:27;15.07;;;2.73;;
69188;SDS011;56302;52.322;5.926;2022-10-26T15:13:53;9.13;;;2.85;;
69188;SDS011;56302;52.322;5.926;2022-10-26T15:16:21;7.75;;;2.83;;
69188;SDS011;56302;52.322;5.926;2022-10-26T15:18:53;13.10;;;2.30;;
69188;SDS011;56302;52.322;5.926;2022-10-26T15:21:24;16.88;;;3.17;;
69188;SDS011;56302;52.322;5.926;2022-10-26T15:23:53;25.73;;;2.97;;
69188;SDS011;56302;52.322;5.926;2022-10-26T15:26:20;21.23;;;2.80;;
69188;SDS011;56302;52.322;5.926;2022-10-26T15:28:46;23.42;;;3.00;;
69188;SDS011;56302;52.322;5.926;2022-10-26T15:33:41;19.35;;;3.05;;
69188;SDS011;56302;52.322;5.926;2022-10-26T15:36:19;22.03;;;3.27;;
69188;SDS011;56302;52.322;5.926;2022-10-26T15:38:48;17.50;;;3.08;;
69188;SDS011;56302;52.322;5.926;2022-10-26T15:43:54;20.42;;;2.88;;
69188;SDS011;56302;52.322;5.926;2022-10-26T15:46:21;13.35;;;3.13;;
69188;SDS011;56302;52.322;5.926;2022-10-26T15:48:56;17.83;;;3.07;;
69188;SDS011;56302;52.322;5.926;2022-10-26T15:51:24;11.85;;;3.83;;
69188;SDS011;56302;52.322;5.926;2022-10-26T15:53:50;14.07;;;3.33;;
69188;SDS011;56302;52.322;5.926;2022-10-26T15:56:20;14.03;;;3.00;;
69188;SDS011;56302;52.322;5.926;2022-10-26T15:58:47;9.25;;;3.17;;
69188;SDS011;56302;52.322;5.926;2022-10-26T16:01:17;11.75;;;2.75;;
69188;SDS011;56302;52.322;5.926;2022-10-26T16:03:44;11.43;;;2.88;;
69188;SDS011;56302;52.322;5.926;2022-10-26T16:06:13;12.90;;;2.97;;
69188;SDS011;56302;52.322;5.926;2022-10-26T16:08:41;13.50;;;2.37;;
69188;SDS011;56302;52.322;5.926;2022-10-26T16:11:13;28.80;;;3.72;;
69188;SDS011;56302;52.322;5.926;2022-10-26T16:13:38;12.13;;;3.30;;
69188;SDS011;56302;52.322;5.926;2022-10-26T16:16:06;17.77;;;2.78;;
69188;SDS011;56302;52.322;5.926;2022-10-26T16:18:38;14.27;;;3.22;;
69188;SDS011;56302;52.322;5.926;2022-10-26T16:21:04;23.60;;;3.63;;
69188;SDS011;56302;52.322;5.926;2022-10-26T16:23:29;10.95;;;3.42;;
69188;SDS011;56302;52.322;5.926;2022-10-26T16:25:55;10.03;;;3.23;;
69188;SDS011;56302;52.322;5.926;2022-10-26T16:28:21;30.15;;;3.60;;
69188;SDS011;56302;52.322;5.926;2022-10-26T16:30:46;14.87;;;3.43;;
69188;SDS011;56302;52.322;5.926;2022-10-26T16:33:12;14.40;;;3.50;;
69188;SDS011;56302;52.322;5.926;2022-10-26T16:35:38;30.27;;;3.58;;
69188;SDS011;56302;52.322;5.926;2022-10-26T16:38:03;23.17;;;3.60;;
69188;SDS011;56302;52.322;5.926;2022-10-26T16:40:29;23.20;;;3.60;;
69188;SDS011;56302;52.322;5.926;2022-10-26T16:42:54;11.57;;;3.88;;
69188;SDS011;56302;52.322;5.926;2022-10-26T16:45:20;9.40;;;3.57;;
69188;SDS011;56302;52.322;5.926;2022-10-26T16:47:45;30.67;;;4.43;;
69188;SDS011;56302;52.322;5.926;2022-10-26T16:50:11;28.75;;;3.83;;
69188;SDS011;56302;52.322;5.926;2022-10-26T16:52:38;12.00;;;3.42;;
69188;SDS011;56302;52.322;5.926;2022-10-26T16:55:04;19.43;;;3.30;;
69188;SDS011;56302;52.322;5.926;2022-10-26T16:57:31;24.63;;;4.00;;
69188;SDS011;56302;52.322;5.926;2022-10-26T16:59:57;8.25;;;3.80;;
69188;SDS011;56302;52.322;5.926;2022-10-26T17:02:22;24.13;;;3.87;;
69188;SDS011;56302;52.322;5.926;2022-10-26T17:04:48;8.93;;;3.70;;
69188;SDS011;56302;52.322;5.926;2022-10-26T17:07:13;15.55;;;3.45;;